Watauga, South Dakota
Current Conditions -  °F | °C
As of 6:53 PM on Friday 28 Nov 2014 (Local Time) from KHEI Reporting Station
Clear Clear  
Wind Chill: 45°   Ceiling: Unl
Heat Index: 45°   Visibility: 10mi
Dew Point: 31°   Wind: 0mph
Humidity: 58%   Direction: NA
Pressure: 29.46"   Gusts: NA
Location:  45.92°N, 101.54°W
Report Text: KHEI 290153Z AUTO 00000KT 10SM CLR 07/M01 A2946 RMK AO2 SLP994 T00721006
Loading
Personal Weather Stations






























Interactive Weather Map New forecast layout! Learn more

10-Day Weather Forecast

Advertisements
Track Severe Weather on mobile